Terminal Aerodrome Forecast
Issued by NWS

Home | Current Version | Previous Version | Text Only | Print | Product List | Glossary On
Versions: 1 2 3 4 5 6 7 8 9 10 11 12
000
FTUS46 KSGX 240520
TAFTRM
TAF
KTRM 240520Z 2406/2506 33011KT P6SM SKC
     FM241100 VRB06KT P6SM SCT200
     FM242200 26010G18KT P6SM SCT200
     FM250300 32015G25KT P6SM SCT200=

USA.gov is the U.S. government's official web portal to all federal, state and local government web resources and services.